Time;durP1;ratioP1;P1;durP2;ratioP2;P2;SDS_P1;SDS_P2;PMS_P1;PMS_P2;Temp;Humidity;BMP_temperature;BMP_pressure;BME280_temperature;BME280_humidity;BME280_pressure;Samples;Min_cycle;Max_cycle;Signal;HPM_P1;HPM_P2
2021/08/25 00:00:46;;;;;;;6.80;5.50;;;;;;;9.97;70.23;100146.95;468061;1192;152721;-62
2021/08/25 00:10:52;;;;;;;14.00;5.10;;;;;;;9.79;70.79;100145.39;455515;1196;142965;-65
2021/08/25 00:20:58;;;;;;;9.70;5.50;;;;;;;9.52;71.32;100146.39;455655;1196;140948;-62
2021/08/25 00:31:04;;;;;;;10.50;6.60;;;;;;;9.31;71.88;100142.95;469364;1195;140862;-64
2021/08/25 00:41:10;;;;;;;10.40;5.90;;;;;;;9.10;72.51;100128.76;471114;1195;144997;-65
2021/08/25 00:51:16;;;;;;;9.70;5.10;;;;;;;8.98;72.91;100122.52;472274;1195;141611;-61
2021/08/25 01:01:31;;;;;;;8.10;5.40;;;;;;;8.86;73.66;100118.74;471944;1195;144826;-64
2021/08/25 01:11:42;;;;;;;11.00;6.00;;;;;;;8.73;74.00;100109.40;471935;1195;141732;-64
2021/08/25 01:21:48;;;;;;;17.50;6.00;;;;;;;8.59;74.51;100106.58;471988;1195;142241;-64
2021/08/25 01:31:55;;;;;;;10.90;6.60;;;;;;;8.47;75.12;100102.58;459976;1199;141893;-62
2021/08/25 01:42:01;;;;;;;12.20;6.00;;;;;;;8.33;75.54;100099.56;472050;1195;141624;-63
2021/08/25 01:52:07;;;;;;;13.70;6.00;;;;;;;8.18;75.99;100102.67;472177;1192;144710;-63
2021/08/25 02:02:13;;;;;;;13.30;7.40;;;;;;;7.99;76.31;100092.90;471537;1195;142461;-63
2021/08/25 02:12:19;;;;;;;7.00;5.60;;;;;;;7.79;76.72;100079.65;472552;1195;142348;-64
2021/08/25 02:22:25;;;;;;;8.80;4.70;;;;;;;7.66;77.02;100075.20;472710;1195;140839;-64
2021/08/25 02:32:31;;;;;;;8.30;5.30;;;;;;;7.50;77.49;100065.40;471403;1185;141331;-64
2021/08/25 02:42:36;;;;;;;8.80;5.00;;;;;;;7.38;77.60;100058.42;472016;1195;141211;-64
2021/08/25 02:52:42;;;;;;;10.30;6.10;;;;;;;7.25;77.84;100058.81;471439;1195;141274;-64
2021/08/25 03:02:48;;;;;;;8.40;4.90;;;;;;;7.11;78.04;100055.39;472319;1195;141396;-64
2021/08/25 03:12:54;;;;;;;10.00;5.60;;;;;;;6.96;78.10;100050.09;472252;1195;141280;-64
2021/08/25 03:23:00;;;;;;;9.30;5.20;;;;;;;6.84;78.37;100045.91;466945;1195;141685;-63
2021/08/25 03:33:09;;;;;;;12.40;5.70;;;;;;;6.70;78.43;100036.21;463397;1195;142333;-62
2021/08/25 03:43:15;;;;;;;14.50;6.40;;;;;;;6.60;78.68;100030.13;472090;1195;141065;-62
2021/08/25 03:53:21;;;;;;;12.00;5.30;;;;;;;6.59;79.01;100024.09;471576;1195;144166;-62
2021/08/25 04:03:26;;;;;;;9.60;5.40;;;;;;;6.75;79.48;100021.19;472283;1186;141732;-62
2021/08/25 04:13:32;;;;;;;11.70;5.90;;;;;;;7.02;79.46;100015.73;472126;1195;141568;-63
2021/08/25 04:23:38;;;;;;;11.00;5.60;;;;;;;7.30;79.31;100011.61;471987;1195;141579;-63
2021/08/25 04:33:45;;;;;;;11.50;6.80;;;;;;;7.74;79.15;100005.30;472274;1194;142060;-64
2021/08/25 04:43:50;;;;;;;8.30;5.70;;;;;;;8.33;78.79;100009.90;471497;1191;143034;-64
2021/08/25 04:53:56;;;;;;;11.60;7.10;;;;;;;8.93;78.40;99996.69;471987;1195;141461;-64
2021/08/25 05:04:03;;;;;;;8.80;5.80;;;;;;;9.47;77.66;99997.59;472254;1194;141500;-64
2021/08/25 05:14:09;;;;;;;11.40;8.60;;;;;;;9.97;76.83;99994.21;469355;1195;142331;-62
2021/08/25 05:24:14;;;;;;;7.30;6.40;;;;;;;12.82;76.70;99989.33;464572;1194;141251;-64
2021/08/25 05:34:25;;;;;;;9.80;5.40;;;;;;;21.82;66.78;99975.25;472259;1194;140745;-64
2021/08/25 05:44:30;;;;;;;9.20;5.10;;;;;;;27.68;56.12;99964.20;471378;1195;141714;-65
2021/08/25 05:54:36;;;;;;;12.20;5.70;;;;;;;31.27;48.73;99962.86;472248;1195;141745;-67
2021/08/25 06:04:42;;;;;;;15.40;7.20;;;;;;;34.57;42.81;99954.98;471256;1195;145220;-66
2021/08/25 06:14:47;;;;;;;6.90;5.50;;;;;;;37.36;37.74;99938.99;472119;1195;140996;-67
2021/08/25 06:24:53;;;;;;;5.50;4.00;;;;;;;39.16;33.43;99935.73;472330;1192;141685;-66
2021/08/25 06:35:00;;;;;;;7.60;3.80;;;;;;;38.38;30.80;99937.20;471356;1195;141675;-66
2021/08/25 06:45:08;;;;;;;5.40;4.30;;;;;;;38.68;28.92;99934.89;472092;1195;140683;-65
2021/08/25 06:55:15;;;;;;;60.10;13.40;;;;;;;39.21;27.62;99931.87;472222;1195;140582;-65
2021/08/25 07:05:22;;;;;;;7.50;5.00;;;;;;;42.13;25.67;99910.70;471627;1184;140912;-64
2021/08/25 07:15:28;;;;;;;8.40;4.90;;;;;;;42.22;24.11;99901.41;472031;1195;140998;-60
2021/08/25 07:25:34;;;;;;;8.30;4.90;;;;;;;43.07;22.87;99896.30;472261;1195;140523;-64
2021/08/25 07:35:48;;;;;;;11.20;5.20;;;;;;;44.92;21.43;99889.91;472267;1195;140200;-61
2021/08/25 07:45:55;;;;;;;4.60;3.80;;;;;;;41.99;20.68;99875.97;461139;1195;141287;-60
2021/08/25 07:56:01;;;;;;;44.80;6.10;;;;;;;33.72;22.99;99870.42;465602;1194;140511;-62
2021/08/25 08:06:07;;;;;;;11.30;4.20;;;;;;;32.05;26.33;99865.38;472250;1195;141281;-63
2021/08/25 08:16:17;;;;;;;5.60;3.60;;;;;;;37.27;23.13;99853.14;471983;1195;141555;-62
2021/08/25 08:26:23;;;;;;;7.60;3.40;;;;;;;37.26;22.72;99840.73;471581;1194;140561;-62
2021/08/25 08:36:30;;;;;;;7.80;4.60;;;;;;;30.87;23.99;99831.58;463720;1195;140496;-61
2021/08/25 08:46:38;;;;;;;8.30;4.20;;;;;;;24.50;29.46;99832.08;458445;1196;144702;-61
2021/08/25 08:56:44;;;;;;;5.00;3.30;;;;;;;21.37;33.22;99830.37;471846;1195;210488;-61
2021/08/25 09:06:51;;;;;;;10.80;5.40;;;;;;;19.46;36.22;99824.59;472378;1194;140485;-61
2021/08/25 09:17:03;;;;;;;4.80;2.90;;;;;;;18.85;38.25;99813.57;471073;1195;142066;-62
2021/08/25 09:27:12;;;;;;;9.30;3.70;;;;;;;18.61;38.69;99799.69;471840;1195;140869;-63
2021/08/25 09:37:19;;;;;;;4.80;3.00;;;;;;;17.68;40.39;99793.97;459790;1195;141145;-63
2021/08/25 09:47:45;;;;;;;4.90;3.10;;;;;;;17.81;41.34;99785.95;455418;1195;141614;-62
2021/08/25 09:57:51;;;;;;;6.00;4.00;;;;;;;18.35;40.41;99766.50;456014;1203;144796;-63
2021/08/25 10:08:00;;;;;;;9.00;4.30;;;;;;;19.68;39.66;99738.84;465615;1194;141438;-65
2021/08/25 10:18:24;;;;;;;4.10;2.50;;;;;;;20.05;39.20;99737.42;456037;1196;144541;-65
2021/08/25 10:28:49;;;;;;;13.20;4.30;;;;;;;18.68;40.67;99730.59;472479;1194;141733;-66
2021/08/25 10:38:55;;;;;;;3.60;1.90;;;;;;;17.79;42.61;99718.83;472795;1194;140975;-66
2021/08/25 10:49:04;;;;;;;4.10;2.40;;;;;;;17.60;43.39;99708.98;472808;1194;140410;-66
2021/08/25 10:59:11;;;;;;;6.90;2.40;;;;;;;18.13;43.33;99693.50;469544;1194;140661;-65
2021/08/25 11:09:21;;;;;;;2.80;1.90;;;;;;;19.06;41.97;99673.16;472698;1182;140399;-65
2021/08/25 11:19:30;;;;;;;16.90;3.40;;;;;;;19.86;40.96;99659.29;471906;1195;141378;-65
2021/08/25 11:29:36;;;;;;;4.40;2.00;;;;;;;20.31;39.94;99647.09;471266;1195;142527;-66
2021/08/25 11:40:07;;;;;;;5.10;1.50;;;;;;;20.81;39.33;99633.35;472684;1194;140685;-66
2021/08/25 11:50:14;;;;;;;3.50;1.30;;;;;;;21.01;38.60;99620.87;471052;1195;140891;-66
2021/08/25 12:00:22;;;;;;;2.30;1.30;;;;;;;20.75;38.54;99606.67;470667;1194;140549;-66
2021/08/25 12:10:29;;;;;;;7.50;1.50;;;;;;;20.70;38.59;99589.08;457115;1195;140011;-63
2021/08/25 12:20:38;;;;;;;3.40;1.50;;;;;;;20.57;38.76;99580.16;466298;1195;142539;-60
2021/08/25 12:30:45;;;;;;;2.70;1.50;;;;;;;19.93;38.97;99563.98;461418;1195;140758;-61
2021/08/25 12:40:56;;;;;;;6.50;1.70;;;;;;;19.53;39.74;99545.59;471229;1185;141618;-59
2021/08/25 12:51:02;;;;;;;2.40;1.70;;;;;;;19.56;40.22;99525.38;455841;1195;20001052;-60
2021/08/25 13:01:12;;;;;;;5.20;1.40;;;;;;;19.51;41.01;99516.50;464565;1196;141187;-62
2021/08/25 13:11:19;;;;;;;3.40;1.50;;;;;;;19.52;41.61;99502.86;464444;1197;140864;-63
2021/08/25 13:21:26;;;;;;;3.00;1.30;;;;;;;19.87;41.39;99490.05;471760;1196;140561;-65
2021/08/25 13:31:32;;;;;;;7.20;2.10;;;;;;;19.76;41.51;99482.19;472346;1194;141394;-64
2021/08/25 13:41:38;;;;;;;2.50;1.50;;;;;;;19.30;41.90;99468.07;457736;1196;140013;-60
2021/08/25 13:51:44;;;;;;;4.00;2.00;;;;;;;18.98;42.28;99451.73;455768;1195;141885;-62
2021/08/25 14:01:50;;;;;;;3.90;2.20;;;;;;;18.59;42.82;99434.03;465006;1195;181436;-59
2021/08/25 14:11:57;;;;;;;6.80;2.20;;;;;;;18.60;43.44;99419.70;471765;1195;140972;-59
2021/08/25 14:22:03;;;;;;;3.00;2.60;;;;;;;18.69;43.68;99396.52;471818;1196;140814;-60
2021/08/25 14:32:10;;;;;;;5.90;3.30;;;;;;;18.69;43.82;99380.19;457028;1195;141149;-59
2021/08/25 14:42:16;;;;;;;8.90;3.50;;;;;;;18.76;44.22;99371.12;472669;1192;142359;-62
2021/08/25 14:52:22;;;;;;;5.20;2.80;;;;;;;18.45;44.87;99359.85;467271;1195;139625;-61
2021/08/25 15:02:28;;;;;;;7.00;2.40;;;;;;;18.44;45.18;99343.50;471323;1195;140783;-61
2021/08/25 15:12:34;;;;;;;3.90;3.50;;;;;;;18.18;45.18;99326.08;472081;1195;140612;-61
2021/08/25 15:22:41;;;;;;;4.50;2.90;;;;;;;17.93;45.83;99304.76;471184;1195;142852;-60
2021/08/25 15:32:48;;;;;;;6.50;2.60;;;;;;;17.69;46.08;99291.34;468379;1195;141953;-59
2021/08/25 15:42:54;;;;;;;3.50;2.30;;;;;;;17.54;46.12;99282.71;468543;1195;140632;-61
2021/08/25 15:53:00;;;;;;;5.50;3.50;;;;;;;17.31;46.82;99275.79;471380;1195;142666;-61
2021/08/25 16:03:06;;;;;;;3.80;2.80;;;;;;;17.19;47.39;99265.20;466275;1195;140601;-58
2021/08/25 16:13:12;;;;;;;6.40;2.60;;;;;;;17.05;47.66;99240.08;464741;1192;141104;-59
2021/08/25 16:23:18;;;;;;;6.80;2.70;;;;;;;16.84;48.20;99225.54;459645;1195;141525;-59
2021/08/25 16:33:27;;;;;;;9.00;3.10;;;;;;;16.63;48.83;99209.71;461619;1195;141920;-59
2021/08/25 16:43:33;;;;;;;3.40;3.10;;;;;;;16.45;49.48;99196.08;471956;1195;144960;-59
2021/08/25 16:53:39;;;;;;;7.60;3.90;;;;;;;16.57;49.53;99185.54;461836;1195;139933;-58
2021/08/25 17:03:45;;;;;;;10.90;4.10;;;;;;;16.18;50.28;99181.09;464510;1192;141286;-59
2021/08/25 17:13:51;;;;;;;6.50;2.80;;;;;;;15.61;51.89;99178.17;468354;1195;144303;-59
2021/08/25 17:23:57;;;;;;;5.60;3.30;;;;;;;15.13;53.19;99167.16;462965;1195;143510;-60
2021/08/25 17:34:04;;;;;;;6.70;3.50;;;;;;;14.70;54.31;99151.31;472025;1195;141061;-60
2021/08/25 17:44:10;;;;;;;5.80;3.80;;;;;;;14.42;55.23;99138.95;471605;1195;140978;-60
2021/08/25 17:54:17;;;;;;;14.00;5.60;;;;;;;14.15;56.24;99127.86;467714;1195;141252;-60
2021/08/25 18:04:24;;;;;;;7.60;4.40;;;;;;;13.84;57.55;99117.83;461932;1195;140675;-59
2021/08/25 18:14:30;;;;;;;8.50;6.20;;;;;;;13.56;58.42;99116.54;469860;1195;141064;-61
2021/08/25 18:24:36;;;;;;;8.90;7.30;;;;;;;13.43;58.84;99104.38;462022;1195;193293;-59
2021/08/25 18:34:44;;;;;;;12.20;7.10;;;;;;;13.46;59.18;99101.37;460191;1195;142593;-61
2021/08/25 18:44:50;;;;;;;10.10;6.40;;;;;;;13.51;59.48;99076.33;462423;1194;141677;-61
2021/08/25 18:54:56;;;;;;;12.00;7.60;;;;;;;13.57;59.64;99061.59;461253;1191;142822;-61
2021/08/25 19:05:03;;;;;;;9.90;7.10;;;;;;;13.61;59.82;99051.05;471240;1195;142296;-63
2021/08/25 19:15:10;;;;;;;12.30;7.00;;;;;;;13.64;60.01;99039.52;464949;1195;141842;-62
2021/08/25 19:25:17;;;;;;;13.60;8.20;;;;;;;13.66;60.08;99028.48;468607;1195;142636;-62
2021/08/25 19:35:27;;;;;;;11.90;8.20;;;;;;;13.67;60.32;99011.95;462268;1191;145606;-63
2021/08/25 19:45:33;;;;;;;11.90;8.50;;;;;;;13.67;60.54;98993.00;459102;1196;141769;-64
2021/08/25 19:55:39;;;;;;;11.40;6.90;;;;;;;13.66;60.84;98988.18;465789;1194;162448;-59
2021/08/25 20:05:45;;;;;;;11.50;6.80;;;;;;;13.68;61.13;98975.15;471981;1195;141950;-62
2021/08/25 20:15:51;;;;;;;7.70;5.10;;;;;;;13.71;61.10;98960.80;472304;1194;141569;-62
2021/08/25 20:25:57;;;;;;;8.90;5.70;;;;;;;13.77;61.23;98946.31;470491;1194;141461;-59
2021/08/25 20:36:04;;;;;;;10.80;6.60;;;;;;;13.82;61.18;98940.13;458424;1194;140502;-61
2021/08/25 20:46:10;;;;;;;6.70;4.40;;;;;;;13.87;61.09;98930.62;472151;1195;145078;-61
2021/08/25 20:56:15;;;;;;;7.20;5.00;;;;;;;13.91;61.03;98910.23;471091;1195;141915;-62
2021/08/25 21:06:21;;;;;;;8.00;5.20;;;;;;;13.93;61.02;98890.88;472049;1195;141057;-61
2021/08/25 21:16:28;;;;;;;7.80;5.50;;;;;;;13.87;61.18;98880.48;457159;1196;142171;-59
2021/08/25 21:26:34;;;;;;;7.60;5.20;;;;;;;13.84;61.42;98866.14;454947;1196;142121;-59
2021/08/25 21:36:40;;;;;;;7.90;5.10;;;;;;;13.78;61.59;98852.46;456461;1202;141186;-59
2021/08/25 21:46:46;;;;;;;8.50;5.00;;;;;;;13.77;61.82;98844.08;455732;1196;140935;-61
2021/08/25 21:56:52;;;;;;;5.80;4.80;;;;;;;13.75;62.01;98825.09;456296;1196;140746;-60
2021/08/25 22:06:59;;;;;;;6.70;4.60;;;;;;;13.71;62.21;98807.42;456715;1203;141545;-60
2021/08/25 22:17:06;;;;;;;6.70;5.00;;;;;;;13.66;62.44;98791.92;455987;1196;144063;-60
2021/08/25 22:27:13;;;;;;;6.70;4.90;;;;;;;13.61;62.79;98770.19;456688;1197;141030;-59
2021/08/25 22:37:19;;;;;;;5.50;4.60;;;;;;;13.57;63.07;98755.46;456954;1195;141651;-60
2021/08/25 22:47:25;;;;;;;6.10;4.30;;;;;;;13.53;63.55;98734.64;455787;1202;140590;-59
2021/08/25 22:57:31;;;;;;;8.20;4.80;;;;;;;13.54;63.71;98722.08;456062;1195;142109;-60
2021/08/25 23:07:37;;;;;;;7.60;5.10;;;;;;;13.56;63.91;98711.38;455962;1194;141078;-56
2021/08/25 23:17:43;;;;;;;7.40;4.30;;;;;;;13.55;64.23;98700.59;462217;1195;197066;-61
2021/08/25 23:27:49;;;;;;;6.20;4.90;;;;;;;13.54;64.32;98686.77;472163;1195;141628;-60
2021/08/25 23:37:55;;;;;;;8.00;6.00;;;;;;;13.57;64.49;98674.92;470982;1195;141323;-60
2021/08/25 23:48:01;;;;;;;7.30;4.50;;;;;;;13.58;64.35;98662.52;466085;1195;142236;-60
2021/08/25 23:58:07;;;;;;;7.10;5.00;;;;;;;13.48;64.59;98645.48;461627;1196;141351;-58
